createdAt,value
2022-08-05T00:01:35.562Z,4.20
2022-08-05T00:04:05.179Z,4.40
2022-08-05T00:06:36.376Z,4.60
2022-08-05T00:09:12.802Z,4.10
2022-08-05T00:11:49.622Z,4.30
2022-08-05T00:14:27.594Z,3.70
2022-08-05T00:17:01.913Z,4.50
2022-08-05T00:19:33.698Z,4.50
2022-08-05T00:22:11.339Z,4.50
2022-08-05T00:24:42.356Z,4.00
2022-08-05T00:27:28.542Z,4.20
2022-08-05T00:29:58.805Z,4.20
2022-08-05T00:32:28.557Z,4.50
2022-08-05T00:35:06.399Z,4.80
2022-08-05T00:37:52.580Z,4.80
2022-08-05T00:40:27.149Z,4.50
2022-08-05T00:42:59.709Z,4.60
2022-08-05T00:45:42.848Z,4.50
2022-08-05T00:50:45.817Z,4.40
2022-08-05T00:54:00.867Z,4.20
2022-08-05T00:56:07.916Z,4.70
2022-08-05T00:58:38.018Z,4.70
2022-08-05T01:01:09.061Z,4.20
2022-08-05T01:03:39.352Z,4.60
2022-08-05T01:06:14.038Z,4.70
2022-08-05T01:08:46.374Z,4.30
2022-08-05T01:11:24.131Z,4.70
2022-08-05T01:14:15.366Z,4.20
2022-08-05T01:16:54.279Z,4.60
2022-08-05T01:19:30.211Z,4.40
2022-08-05T01:22:34.152Z,4.20
2022-08-05T01:25:08.232Z,4.40
2022-08-05T01:27:50.608Z,4.10
2022-08-05T01:30:34.247Z,4.30
2022-08-05T01:33:09.589Z,4.20
2022-08-05T01:35:50.988Z,4.50
2022-08-05T01:38:26.811Z,4.30
2022-08-05T01:41:01.790Z,4.60
2022-08-05T01:43:32.674Z,4.50
2022-08-05T01:46:06.910Z,4.20
2022-08-05T01:48:49.388Z,5.00
2022-08-05T01:51:19.182Z,4.60
2022-08-05T01:53:58.126Z,5.00
2022-08-05T01:58:09.947Z,4.70
2022-08-05T01:59:22.198Z,5.40
2022-08-05T02:01:54.762Z,5.10
2022-08-05T02:04:25.950Z,5.20
2022-08-05T02:06:54.025Z,4.70
2022-08-05T02:09:22.142Z,5.00
2022-08-05T02:12:11.028Z,4.80
2022-08-05T02:14:47.993Z,4.90
2022-08-05T02:18:27.624Z,5.00
2022-08-05T02:20:22.197Z,4.90
2022-08-05T02:23:00.047Z,5.00
2022-08-05T02:25:49.355Z,4.60
2022-08-05T02:28:29.258Z,5.10
2022-08-05T02:31:26.519Z,5.80
2022-08-05T02:34:02.779Z,4.60
2022-08-05T02:36:32.714Z,4.80
2022-08-05T02:39:03.296Z,5.50
2022-08-05T02:41:43.221Z,6.40
2022-08-05T02:44:24.464Z,5.60
2022-08-05T02:47:00.269Z,5.60
2022-08-05T02:49:36.699Z,5.00
2022-08-05T02:52:09.377Z,5.80
2022-08-05T02:54:41.179Z,5.40
2022-08-05T02:58:10.337Z,5.40
2022-08-05T03:00:04.900Z,4.80
2022-08-05T03:02:40.594Z,5.20
2022-08-05T03:05:12.510Z,5.60
2022-08-05T03:08:06.705Z,6.40
2022-08-05T03:10:30.960Z,5.80
2022-08-05T03:15:28.485Z,4.70
2022-08-05T03:17:57.798Z,5.80
2022-08-05T03:20:28.447Z,5.50
2022-08-05T03:22:57.622Z,5.40
2022-08-05T03:25:32.989Z,5.00
2022-08-05T03:29:03.014Z,5.20
2022-08-05T03:31:56.520Z,5.00
2022-08-05T03:34:27.340Z,5.30
2022-08-05T03:36:57.250Z,5.60
2022-08-05T03:39:27.219Z,5.50
2022-08-05T03:41:56.972Z,6.60
2022-08-05T03:44:26.090Z,6.20
2022-08-05T03:46:57.217Z,5.80
2022-08-05T03:49:30.977Z,5.50
2022-08-05T03:52:48.515Z,5.50
2022-08-05T03:55:52.916Z,5.50
2022-08-05T03:58:03.770Z,13.30
2022-08-05T04:00:33.333Z,6.40
2022-08-05T04:03:03.558Z,5.50
2022-08-05T04:05:36.360Z,5.70
2022-08-05T04:08:14.504Z,6.00
2022-08-05T04:10:59.003Z,5.80
2022-08-05T04:13:51.142Z,5.90
2022-08-05T04:16:24.959Z,6.20
2022-08-05T04:18:54.898Z,5.60
2022-08-05T04:22:08.235Z,5.20
2022-08-05T04:24:18.839Z,5.70
2022-08-05T04:29:15.602Z,5.60
2022-08-05T04:31:43.569Z,5.50
2022-08-05T04:34:31.247Z,5.60
2022-08-05T04:36:59.628Z,5.60
2022-08-05T04:39:28.831Z,5.40
2022-08-05T04:41:56.724Z,6.10
2022-08-05T04:44:29.904Z,5.80
2022-08-05T04:46:59.578Z,6.60
2022-08-05T04:49:38.767Z,5.80
2022-08-05T04:52:16.212Z,5.80
2022-08-05T04:54:44.274Z,5.50
2022-08-05T04:57:12.188Z,5.20
2022-08-05T04:59:40.734Z,5.90
2022-08-05T05:02:41.518Z,5.70
2022-08-05T05:05:03.105Z,5.70
2022-08-05T05:07:35.347Z,5.40
2022-08-05T05:10:06.661Z,5.70
2022-08-05T05:12:36.646Z,5.30
2022-08-05T05:15:06.024Z,6.10
2022-08-05T05:20:28.374Z,5.70
2022-08-05T05:23:24.478Z,5.50
2022-08-05T05:25:52.609Z,5.50
2022-08-05T05:28:20.651Z,5.90
2022-08-05T05:30:49.581Z,5.70
2022-08-05T05:33:18.035Z,5.40
2022-08-05T05:35:51.843Z,6.70
2022-08-05T05:38:22.641Z,5.10
2022-08-05T05:40:58.006Z,5.20
2022-08-05T05:43:54.181Z,5.60
2022-08-05T05:46:15.915Z,6.80
2022-08-05T05:48:48.865Z,5.40
2022-08-05T05:51:22.343Z,5.30
2022-08-05T05:53:57.482Z,5.30
2022-08-05T05:56:32.487Z,5.50
2022-08-05T05:59:07.426Z,5.60
2022-08-05T06:01:39.401Z,5.30
2022-08-05T06:04:11.821Z,5.00
2022-08-05T06:06:47.290Z,5.80
2022-08-05T06:09:25.646Z,5.30
2022-08-05T06:12:01.160Z,5.30
2022-08-05T06:14:31.673Z,5.60
2022-08-05T06:17:02.091Z,5.60
2022-08-05T06:19:56.577Z,6.60
2022-08-05T06:22:30.557Z,7.70
2022-08-05T06:25:25.165Z,6.70
2022-08-05T06:28:10.999Z,6.00
2022-08-05T06:30:41.410Z,5.20
2022-08-05T06:33:10.652Z,4.80
2022-08-05T06:36:07.767Z,5.70
2022-08-05T06:38:36.745Z,5.80
2022-08-05T06:41:08.247Z,5.20
2022-08-05T06:43:58.727Z,5.50
2022-08-05T06:46:30.355Z,4.90
2022-08-05T06:49:01.217Z,5.40
2022-08-05T06:51:31.037Z,5.00
2022-08-05T06:54:01.968Z,6.30
2022-08-05T06:56:34.680Z,6.10
2022-08-05T06:59:09.490Z,5.60
2022-08-05T07:01:40.748Z,5.50
2022-08-05T07:04:10.927Z,5.50
2022-08-05T07:06:42.239Z,6.00
2022-08-05T07:09:10.304Z,5.10
2022-08-05T07:11:39.991Z,5.10
2022-08-05T07:14:29.513Z,4.90
2022-08-05T07:17:58.405Z,5.00
2022-08-05T07:20:31.226Z,5.40
2022-08-05T07:22:39.509Z,4.50
2022-08-05T07:25:54.728Z,5.50
2022-08-05T07:28:04.187Z,5.50
2022-08-05T07:30:38.693Z,5.20
2022-08-05T07:33:15.571Z,5.20
2022-08-05T07:36:02.310Z,5.30
2022-08-05T07:38:43.645Z,5.20
2022-08-05T07:42:08.573Z,4.90
2022-08-05T07:44:18.594Z,4.90
2022-08-05T07:46:49.501Z,5.00
2022-08-05T07:49:19.975Z,5.40
2022-08-05T07:51:53.423Z,5.50
2022-08-05T07:54:31.485Z,5.70
2022-08-05T07:57:16.709Z,5.60
2022-08-05T07:59:51.656Z,5.30
2022-08-05T08:02:26.757Z,5.40
2022-08-05T08:05:02.032Z,5.30
2022-08-05T08:07:39.677Z,5.00
2022-08-05T08:10:20.434Z,5.70
2022-08-05T08:12:50.013Z,5.50
2022-08-05T08:15:18.236Z,5.50
2022-08-05T08:18:09.911Z,5.30
2022-08-05T08:21:02.288Z,5.50
2022-08-05T08:24:02.126Z,6.30
2022-08-05T08:26:27.024Z,5.10
2022-08-05T08:29:21.616Z,5.00
2022-08-05T08:31:49.260Z,5.40
2022-08-05T08:34:30.148Z,5.50
2022-08-05T08:37:04.914Z,5.10
2022-08-05T08:39:37.110Z,6.10
2022-08-05T08:42:33.815Z,6.00
2022-08-05T08:45:18.096Z,5.20
2022-08-05T08:48:11.789Z,5.40
2022-08-05T08:51:22.806Z,6.30
2022-08-05T08:53:37.195Z,5.70
2022-08-05T08:57:06.025Z,4.80
2022-08-05T09:01:00.751Z,4.70
2022-08-05T09:05:16.714Z,4.00
2022-08-05T09:08:58.692Z,4.30
2022-08-05T09:12:51.122Z,4.50
2022-08-05T09:16:42.194Z,4.80
2022-08-05T09:20:38.382Z,4.20
2022-08-05T09:24:27.408Z,4.70
2022-08-05T09:28:21.027Z,4.10
2022-08-05T09:32:42.252Z,4.00
2022-08-05T09:36:19.922Z,4.30
2022-08-05T09:39:16.788Z,4.40
2022-08-05T09:41:58.691Z,4.50
2022-08-05T09:44:35.818Z,4.30
2022-08-05T09:47:15.435Z,3.70
2022-08-05T09:50:00.695Z,4.00
2022-08-05T09:52:35.847Z,4.30
2022-08-05T09:55:57.988Z,3.30
2022-08-05T09:57:59.844Z,3.40
2022-08-05T10:00:30.470Z,3.50
2022-08-05T10:02:59.160Z,3.40
2022-08-05T10:05:32.746Z,3.60
2022-08-05T10:08:35.823Z,4.00
2022-08-05T10:10:54.443Z,4.00
2022-08-05T10:13:31.615Z,4.20
2022-08-05T10:16:29.171Z,3.70
2022-08-05T10:18:58.383Z,3.60
2022-08-05T10:21:27.647Z,3.70
2022-08-05T10:24:07.551Z,3.80
2022-08-05T10:26:49.160Z,3.10
2022-08-05T10:29:24.058Z,3.30
2022-08-05T10:32:53.604Z,3.70
2022-08-05T10:35:00.881Z,3.50
2022-08-05T10:37:40.394Z,3.20
2022-08-05T10:40:28.546Z,3.50
2022-08-05T10:43:04.943Z,3.40
2022-08-05T10:45:40.291Z,3.20
2022-08-05T10:48:35.279Z,3.20
2022-08-05T10:51:21.975Z,3.00
2022-08-05T10:54:22.992Z,3.30
2022-08-05T10:56:58.544Z,3.50
2022-08-05T11:00:04.283Z,3.00
2022-08-05T11:02:37.490Z,3.60
2022-08-05T11:05:10.607Z,3.40
2022-08-05T11:08:03.201Z,3.10
2022-08-05T11:10:50.066Z,2.80
2022-08-05T11:13:54.923Z,4.20
2022-08-05T11:16:33.683Z,3.30
2022-08-05T11:20:10.047Z,3.60
2022-08-05T11:22:49.769Z,2.90
2022-08-05T11:26:06.105Z,3.00
2022-08-05T11:28:33.452Z,3.70
2022-08-05T11:31:06.577Z,2.90
2022-08-05T11:33:53.212Z,3.30
2022-08-05T11:36:44.597Z,2.90
2022-08-05T11:39:18.850Z,3.00
2022-08-05T11:42:01.462Z,2.90
2022-08-05T11:44:52.720Z,2.60
2022-08-05T11:47:48.517Z,2.60
2022-08-05T11:50:14.439Z,2.80
2022-08-05T11:52:44.113Z,2.90
2022-08-05T11:55:15.020Z,2.80
2022-08-05T11:58:10.319Z,3.20
2022-08-05T12:00:38.593Z,2.90
2022-08-05T12:03:31.632Z,2.80
2022-08-05T12:06:06.193Z,2.80
2022-08-05T12:08:51.006Z,2.40
2022-08-05T12:11:21.743Z,2.60
2022-08-05T12:14:10.212Z,2.40
2022-08-05T12:16:41.402Z,2.30
2022-08-05T12:20:25.839Z,2.60
2022-08-05T12:22:09.416Z,3.30
2022-08-05T12:24:43.734Z,2.90
2022-08-05T12:27:33.022Z,2.30
2022-08-05T12:30:07.573Z,2.70
2022-08-05T12:32:50.355Z,2.60
2022-08-05T12:35:21.714Z,2.40
2022-08-05T12:37:50.315Z,2.40
2022-08-05T12:40:26.723Z,3.20
2022-08-05T12:42:58.973Z,2.70
2022-08-05T12:45:36.862Z,2.90
2022-08-05T12:48:27.055Z,2.70
2022-08-05T12:52:10.671Z,3.00
2022-08-05T12:54:02.840Z,3.20
2022-08-05T12:56:35.079Z,3.10
2022-08-05T12:59:23.824Z,2.60
2022-08-05T13:02:08.247Z,2.80
2022-08-05T13:04:52.276Z,2.60
2022-08-05T13:07:55.738Z,2.50
2022-08-05T13:10:19.631Z,2.80
2022-08-05T13:12:57.919Z,2.60
2022-08-05T13:15:42.236Z,2.20
2022-08-05T13:18:20.066Z,2.30
2022-08-05T13:20:49.916Z,2.60
2022-08-05T13:23:22.616Z,2.70
2022-08-05T13:25:59.696Z,2.60
2022-08-05T13:28:29.490Z,2.30
2022-08-05T13:31:11.208Z,2.30
2022-08-05T13:34:23.605Z,2.00
2022-08-05T13:36:31.785Z,2.20
2022-08-05T13:40:15.094Z,2.20
2022-08-05T13:44:05.918Z,2.50
2022-08-05T13:47:04.971Z,2.50
2022-08-05T13:49:36.948Z,2.70
2022-08-05T13:52:18.314Z,2.40
2022-08-05T13:54:53.463Z,2.50
2022-08-05T13:57:22.476Z,3.70
2022-08-05T13:59:57.419Z,3.00
2022-08-05T14:02:37.323Z,2.60
2022-08-05T14:05:15.275Z,2.60
2022-08-05T14:08:02.705Z,2.70
2022-08-05T14:10:34.988Z,2.50
2022-08-05T14:13:03.045Z,2.40
2022-08-05T14:16:08.476Z,2.30
2022-08-05T14:18:23.413Z,2.60
2022-08-05T14:20:54.352Z,2.60
2022-08-05T14:23:26.062Z,2.50
2022-08-05T14:25:58.751Z,2.60
2022-08-05T14:28:29.792Z,3.40
2022-08-05T14:31:00.575Z,2.50
2022-08-05T14:33:57.003Z,2.50
2022-08-05T14:36:21.470Z,3.10
2022-08-05T14:38:50.966Z,2.40
2022-08-05T14:41:20.024Z,2.70
2022-08-05T14:43:59.106Z,2.80
2022-08-05T14:46:31.043Z,2.70
2022-08-05T14:49:07.000Z,2.40
2022-08-05T14:51:38.172Z,3.10
2022-08-05T14:54:30.049Z,2.60
2022-08-05T14:56:56.011Z,2.60
2022-08-05T14:59:24.248Z,2.70
2022-08-05T15:01:53.838Z,2.70
2022-08-05T15:04:22.690Z,2.90
2022-08-05T15:06:51.765Z,2.80
2022-08-05T15:09:50.542Z,2.50
2022-08-05T15:12:11.691Z,2.40
2022-08-05T15:14:49.593Z,2.60
2022-08-05T15:17:45.680Z,2.80
2022-08-05T15:20:16.999Z,2.50
2022-08-05T15:22:52.404Z,3.00
2022-08-05T15:25:41.235Z,4.00
2022-08-05T15:28:15.469Z,2.80
2022-08-05T15:30:45.734Z,2.90
2022-08-05T15:34:04.111Z,2.60
2022-08-05T15:36:04.954Z,2.90
2022-08-05T15:38:42.100Z,3.20
2022-08-05T15:41:22.782Z,3.30
2022-08-05T15:43:54.671Z,2.80
2022-08-05T15:46:24.932Z,2.70
2022-08-05T15:49:00.763Z,2.50
2022-08-05T15:52:13.655Z,2.30
2022-08-05T15:54:34.952Z,2.40
2022-08-05T15:57:07.773Z,2.40
2022-08-05T15:59:38.102Z,2.10
2022-08-05T16:02:14.331Z,2.50
2022-08-05T16:04:44.021Z,2.20
2022-08-05T16:07:12.314Z,2.60
2022-08-05T16:09:42.136Z,2.40
2022-08-05T16:12:11.892Z,3.30
2022-08-05T16:14:40.180Z,3.20
2022-08-05T16:17:09.503Z,2.40
2022-08-05T16:20:03.671Z,2.20
2022-08-05T16:22:34.095Z,2.40
2022-08-05T16:25:08.201Z,2.60
2022-08-05T16:27:47.173Z,3.20
2022-08-05T16:30:28.711Z,2.30
2022-08-05T16:32:58.272Z,2.70
2022-08-05T16:35:28.625Z,2.50
2022-08-05T16:38:15.095Z,2.60
2022-08-05T16:40:51.761Z,2.30
2022-08-05T16:43:25.691Z,2.80
2022-08-05T16:46:07.794Z,2.80
2022-08-05T16:48:41.501Z,2.40
2022-08-05T16:51:10.914Z,3.00
2022-08-05T16:54:05.991Z,2.80
2022-08-05T16:56:31.029Z,2.60
2022-08-05T16:59:00.972Z,3.00
2022-08-05T17:01:54.240Z,2.80
2022-08-05T17:04:27.369Z,2.80
2022-08-05T17:07:03.199Z,3.00
